Woodworth, LA (71485)

5:30 AM CST on February 06, 2016 (GMT -0600)
Cherokee Village | | Change Station
CLOSE
Current Station
Personal Weather Station
Location: Alexandria, LA
Elevation: 77 ft
Nearby Weather Stations

Elev 77 ft 31.26 °N, 92.48 °W | Updated 12 seconds ago

Mostly Cloudy
Mostly Cloudy
38.1 °F
Feels Like 38 °F
N
0.0
Wind Variable Wind from SW
Gusts 0.0 mph

Today
High -- | Low -- °F
--% Chance of Precip.
Yesterday
High -- | Low -- °F
Precip. -- in
Pressure 30.32 in
Visibility 10.0 miles
Clouds Clear
Windchill 38 °F
Dew Point 33 °F
Humidity 81%
Rainfall 0.00 in
Snow Depth Not available.
6:59 AM 5:49 PM
Waning Crescent, 6% visible
METAR KAEX 061053Z 14003KT 10SM CLR 03/01 A3030 RMK AO2 SLP266 T00330011
Pressure 30.32 in
Visibility 10.0 miles
Clouds Clear
Windchill 38 °F
Dew Point 33 °F
Humidity 81%
Rainfall 0.00 in
Snow Depth Not available.
6:59 AM 5:49 PM
Waning Crescent, 6% visible
METAR KAEX 061053Z 14003KT 10SM CLR 03/01 A3030 RMK AO2 SLP266 T00330011

10-Day Weather Forecast

Almanac

Astronomy

Feb. 06, 2016 Rise Set
Actual Time
Civil Twilight
Nautical Twilight
Astronomical Twilight
Moon
Length of Visible Light
Length of Day
Tomorrow will be .
, % of the Moon is Illuminated

Today's Extremes

State Highs State Lows

Community

WunderPhotos

Upload Photos

1,890,933 photos uploaded!

WunderBlog® & News

Nearby

Air Quality

  Air Quality AQ Index Pollutant
Not available.

Snow Depth

Station Depth Elevation

Earthquake Activity

City Distance Mag. Time & Date
Minimum magnitude displayed is 2.5.

Coastal Water Temperatures

Place Temperature

Stations

Nearby Weather Stations

Station Location Temp. Windchill Dew Point Humidity Wind Precip. Elev Updated Type
                   

Watches & Warnings

There are currently no watches in effect.